createdAt,value
2022-10-24T00:01:22.561Z,101488.65
2022-10-24T00:03:50.850Z,101471.09
2022-10-24T00:06:20.023Z,101458.46
2022-10-24T00:08:48.213Z,101449.54
2022-10-24T00:11:23.044Z,101451.86
2022-10-24T00:13:51.490Z,101459.22
2022-10-24T00:16:20.167Z,101453.16
2022-10-24T00:18:48.504Z,101448.69
2022-10-24T00:21:16.433Z,101458.34
2022-10-24T00:23:44.075Z,101471.15
2022-10-24T00:26:12.924Z,101483.97
2022-10-24T00:28:41.237Z,101478.22
2022-10-24T00:31:13.758Z,101476.61
2022-10-24T00:33:41.736Z,101469.29
2022-10-24T00:36:14.131Z,101472.43
2022-10-24T00:38:41.875Z,101475.83
2022-10-24T00:41:09.672Z,101470.86
2022-10-24T00:43:37.268Z,101484.98
2022-10-24T00:46:05.209Z,101482.11
2022-10-24T00:48:56.187Z,101483.68
2022-10-24T00:51:31.504Z,101498.85
2022-10-24T00:54:05.580Z,101507.22
2022-10-24T00:56:40.614Z,101529.06
2022-10-24T00:59:10.531Z,101522.23
2022-10-24T01:01:39.110Z,101532.46
2022-10-24T01:04:08.545Z,101523.54
2022-10-24T01:07:03.704Z,101519.35
2022-10-24T01:09:49.065Z,101513.59
2022-10-24T01:12:54.126Z,101512.02
2022-10-24T01:15:27.376Z,101507.25
2022-10-24T01:18:18.499Z,101507.25
2022-10-24T01:21:34.063Z,101496.82
2022-10-24T01:24:43.220Z,101501.50
2022-10-24T01:27:26.326Z,101518.77
2022-10-24T01:30:04.375Z,101522.36
2022-10-24T01:32:52.056Z,101524.95
2022-10-24T01:35:45.834Z,101519.68
2022-10-24T01:38:53.092Z,101518.41
2022-10-24T01:41:24.144Z,101499.83
2022-10-24T01:44:03.635Z,101522.27
2022-10-24T01:46:36.953Z,101537.89
2022-10-24T01:49:11.545Z,101552.58
2022-10-24T01:51:42.017Z,101549.41
2022-10-24T01:54:11.214Z,101529.72
2022-10-24T01:56:38.936Z,101537.89
2022-10-24T01:59:30.668Z,101545.41
2022-10-24T02:02:11.371Z,101547.21
2022-10-24T02:04:48.029Z,101529.66
2022-10-24T02:07:19.628Z,101533.61
2022-10-24T02:09:52.061Z,101538.09
2022-10-24T02:12:22.219Z,101530.73
2022-10-24T02:14:58.538Z,101521.28
2022-10-24T02:17:26.711Z,101507.41
2022-10-24T02:19:55.312Z,101510.30
2022-10-24T02:22:45.459Z,101502.94
2022-10-24T02:25:20.468Z,101499.77
2022-10-24T02:28:04.770Z,101510.78
2022-10-24T02:30:38.626Z,101499.77
2022-10-24T02:33:06.595Z,101519.91
2022-10-24T02:35:37.576Z,101527.76
2022-10-24T02:38:19.592Z,101525.47
2022-10-24T02:40:49.934Z,101521.51
2022-10-24T02:43:20.084Z,101513.66
2022-10-24T02:45:48.283Z,101518.86
2022-10-24T02:48:20.689Z,101524.87
2022-10-24T02:50:49.094Z,101510.00
2022-10-24T02:53:20.557Z,101507.13
2022-10-24T02:55:48.540Z,101512.16
2022-10-24T02:58:16.177Z,101527.07
2022-10-24T03:00:44.129Z,101522.59
2022-10-24T03:03:11.765Z,101528.15
2022-10-24T03:05:39.458Z,101532.10
2022-10-24T03:08:07.204Z,101519.02
2022-10-24T03:10:34.854Z,101508.56
2022-10-24T03:13:02.459Z,101495.77
2022-10-24T03:15:30.202Z,101498.98
2022-10-24T03:17:57.789Z,101511.24
2022-10-24T03:20:25.832Z,101517.00
2022-10-24T03:22:53.440Z,101519.88
2022-10-24T03:25:21.109Z,101531.42
2022-10-24T03:27:48.734Z,101540.54
2022-10-24T03:30:16.498Z,101541.82
2022-10-24T03:32:44.465Z,101533.51
2022-10-24T03:35:14.153Z,101536.88
2022-10-24T03:37:42.479Z,101538.94
2022-10-24T03:40:11.326Z,101545.02
2022-10-24T03:42:39.349Z,101540.84
2022-10-24T03:45:07.799Z,101545.80
2022-10-24T03:47:35.397Z,101551.56
2022-10-24T03:50:03.069Z,101541.62
2022-10-24T03:52:30.707Z,101564.15
2022-10-24T03:54:58.297Z,101550.55
2022-10-24T03:57:25.959Z,101562.87
2022-10-24T03:59:53.586Z,101557.91
2022-10-24T04:02:21.442Z,101562.87
2022-10-24T04:04:49.072Z,101554.51
2022-10-24T04:07:16.751Z,101541.42
2022-10-24T04:09:44.461Z,101545.87
2022-10-24T04:12:12.082Z,101552.45
2022-10-24T04:14:39.808Z,101561.27
2022-10-24T04:17:07.478Z,101558.69
2022-10-24T04:19:35.366Z,101567.81
2022-10-24T04:22:03.007Z,101562.05
2022-10-24T04:24:30.752Z,101557.91
2022-10-24T04:26:58.477Z,101556.30
2022-10-24T04:29:26.087Z,101556.30
2022-10-24T04:31:53.782Z,101548.00
2022-10-24T04:34:21.491Z,101535.67
2022-10-24T04:36:49.068Z,101553.23
2022-10-24T04:39:16.918Z,101554.05
2022-10-24T04:41:44.512Z,101551.92
2022-10-24T04:44:12.345Z,101541.23
2022-10-24T04:46:40.194Z,101539.92
2022-10-24T04:49:07.870Z,101569.19
2022-10-24T04:51:35.433Z,101564.25
2022-10-24T04:54:03.119Z,101563.23
2022-10-24T04:56:30.781Z,101570.89
2022-10-24T04:58:58.429Z,101569.61
2022-10-24T05:01:26.259Z,101555.98
2022-10-24T05:03:54.143Z,101541.09
2022-10-24T05:06:21.827Z,101518.37
2022-10-24T05:08:49.471Z,101508.92
2022-10-24T05:11:17.141Z,101501.89
2022-10-24T05:13:44.831Z,101505.81
2022-10-24T05:16:12.447Z,101494.30
2022-10-24T05:18:40.128Z,101482.80
2022-10-24T05:21:07.768Z,101488.55
2022-10-24T05:23:35.457Z,101496.69
2022-10-24T05:26:03.112Z,101482.01
2022-10-24T05:28:30.755Z,101483.12
2022-10-24T05:30:58.508Z,101486.00
2022-10-24T05:33:26.184Z,101481.48
2022-10-24T05:35:54.799Z,101483.61
2022-10-24T05:38:22.408Z,101493.03
2022-10-24T05:40:50.400Z,101486.00
2022-10-24T05:43:18.545Z,101485.18
2022-10-24T05:45:48.576Z,101477.82
2022-10-24T05:48:17.047Z,101494.11
2022-10-24T05:50:44.699Z,101501.43
2022-10-24T05:53:14.081Z,101506.44
2022-10-24T05:55:41.738Z,101484.16
2022-10-24T05:58:09.405Z,101480.51
2022-10-24T06:00:37.199Z,101483.38
2022-10-24T06:03:04.808Z,101486.26
2022-10-24T06:05:32.431Z,101489.14
2022-10-24T06:08:00.914Z,101492.31
2022-10-24T06:10:28.636Z,101489.14
2022-10-24T06:12:56.274Z,101503.55
2022-10-24T06:15:24.188Z,101515.36
2022-10-24T06:17:52.134Z,101516.93
2022-10-24T06:20:20.102Z,101528.73
2022-10-24T06:22:50.121Z,101532.92
2022-10-24T06:25:18.516Z,101530.63
2022-10-24T06:27:46.377Z,101536.98
2022-10-24T06:30:14.132Z,101541.13
2022-10-24T06:32:44.501Z,101546.92
2022-10-24T06:35:14.492Z,101538.25
2022-10-24T06:37:45.719Z,101545.41
2022-10-24T06:40:15.713Z,101547.28
2022-10-24T06:42:43.355Z,101552.02
2022-10-24T06:45:11.412Z,101547.05
2022-10-24T06:47:39.135Z,101558.95
2022-10-24T06:50:07.816Z,101555.35
2022-10-24T06:52:35.481Z,101550.68
2022-10-24T06:55:03.221Z,101533.45
2022-10-24T06:57:30.848Z,101532.14
2022-10-24T06:59:59.002Z,101528.77
2022-10-24T07:02:26.881Z,101524.09
2022-10-24T07:04:54.595Z,101538.02
2022-10-24T07:07:23.361Z,101532.53
2022-10-24T07:09:58.765Z,101540.38
2022-10-24T07:12:26.817Z,101541.16
2022-10-24T07:14:54.538Z,101560.81
2022-10-24T07:17:22.261Z,101565.00
2022-10-24T07:19:54.989Z,101556.37
2022-10-24T07:22:23.173Z,101556.37
2022-10-24T07:24:57.560Z,101567.39
2022-10-24T07:27:25.255Z,101561.63
2022-10-24T07:29:53.276Z,101560.81
2022-10-24T07:32:21.931Z,101566.11
2022-10-24T07:34:49.608Z,101562.71
2022-10-24T07:37:18.569Z,101563.50
2022-10-24T07:39:47.865Z,101573.73
2022-10-24T07:42:16.622Z,101586.84
2022-10-24T07:44:44.254Z,101574.02
2022-10-24T07:47:13.176Z,101565.16
2022-10-24T07:49:40.869Z,101558.43
2022-10-24T07:52:08.573Z,101553.42
2022-10-24T07:54:37.445Z,101566.05
2022-10-24T07:57:05.740Z,101561.38
2022-10-24T07:59:48.780Z,101557.48
2022-10-24T08:02:17.587Z,101557.74
2022-10-24T08:04:45.487Z,101577.72
2022-10-24T08:07:14.300Z,101570.17
2022-10-24T08:09:43.573Z,101553.13
2022-10-24T08:12:11.752Z,101546.07
2022-10-24T08:14:41.828Z,101545.84
2022-10-24T08:17:09.901Z,101555.06
2022-10-24T08:19:39.516Z,101565.59
2022-10-24T08:22:10.449Z,101554.57
2022-10-24T08:24:38.266Z,101563.20
2022-10-24T08:27:05.878Z,101571.38
2022-10-24T08:29:33.578Z,101570.85
2022-10-24T08:32:01.311Z,101584.49
2022-10-24T08:34:29.003Z,101596.03
2022-10-24T08:36:56.672Z,101598.91
2022-10-24T08:39:24.289Z,101622.48
2022-10-24T08:42:00.174Z,101615.91
2022-10-24T08:44:30.838Z,101607.77
2022-10-24T08:47:11.047Z,101646.59
2022-10-24T08:50:02.126Z,101635.73
2022-10-24T08:52:41.976Z,101650.16
2022-10-24T08:55:48.891Z,101676.31
2022-10-24T08:58:27.532Z,101663.20
2022-10-24T09:01:00.319Z,101677.33
2022-10-24T09:03:57.798Z,101664.21
2022-10-24T09:06:28.417Z,101675.27
2022-10-24T09:09:20.670Z,101677.85
2022-10-24T09:11:57.536Z,101680.73
2022-10-24T09:14:34.073Z,101690.18
2022-10-24T09:17:12.115Z,101689.36
2022-10-24T09:19:40.679Z,101683.93
2022-10-24T09:22:12.460Z,101671.08
2022-10-24T09:24:39.973Z,101657.74
2022-10-24T09:27:17.126Z,101652.28
2022-10-24T09:29:45.361Z,101658.33
2022-10-24T09:32:19.251Z,101643.41
2022-10-24T09:34:47.443Z,101648.65
2022-10-24T09:37:44.331Z,101653.91
2022-10-24T09:40:27.958Z,101656.82
2022-10-24T09:43:01.489Z,101657.58
2022-10-24T09:45:29.022Z,101652.34
2022-10-24T09:48:03.216Z,101652.34
2022-10-24T09:50:35.622Z,101664.64
2022-10-24T09:53:05.314Z,101679.35
2022-10-24T09:55:33.075Z,101679.06
2022-10-24T09:58:05.149Z,101675.43
2022-10-24T10:00:37.594Z,101670.13
2022-10-24T10:03:23.966Z,101674.80
2022-10-24T10:05:55.544Z,101687.92
2022-10-24T10:08:34.471Z,101700.58
2022-10-24T10:11:06.501Z,101705.77
2022-10-24T10:13:46.892Z,101674.80
2022-10-24T10:16:22.937Z,101672.95
2022-10-24T10:18:50.769Z,101697.90
2022-10-24T10:21:21.162Z,101719.38
2022-10-24T10:23:54.966Z,101725.13
2022-10-24T10:26:52.660Z,101734.32
2022-10-24T10:29:20.333Z,101738.77
2022-10-24T10:31:51.521Z,101744.55
2022-10-24T10:34:40.206Z,101740.38
2022-10-24T10:37:39.832Z,101732.49
2022-10-24T10:40:33.531Z,101760.77
2022-10-24T10:43:17.965Z,101766.17
2022-10-24T10:45:59.090Z,101777.42
2022-10-24T10:48:33.996Z,101778.11
2022-10-24T10:51:43.504Z,101778.99
2022-10-24T10:54:28.983Z,101786.74
2022-10-24T10:57:04.151Z,101791.12
2022-10-24T10:59:31.774Z,101798.28
2022-10-24T11:02:16.112Z,101814.99
2022-10-24T11:05:11.627Z,101815.68
2022-10-24T11:07:46.798Z,101807.02
2022-10-24T11:10:21.841Z,101787.04
2022-10-24T11:12:50.042Z,101768.49
2022-10-24T11:15:22.608Z,101768.79
2022-10-24T11:17:59.566Z,101743.15
2022-10-24T11:20:56.391Z,101730.62
2022-10-24T11:26:27.994Z,101713.49
2022-10-24T11:29:00.227Z,101710.23
2022-10-24T11:31:49.499Z,101696.36
2022-10-24T11:34:26.922Z,101673.11
2022-10-24T11:37:13.912Z,101652.73
2022-10-24T11:40:11.592Z,101662.22
2022-10-24T11:42:58.332Z,101669.02
2022-10-24T11:45:34.446Z,101671.93
2022-10-24T11:48:20.439Z,101664.57
2022-10-24T11:50:55.053Z,101670.52
2022-10-24T11:53:34.669Z,101683.34
2022-10-24T11:56:13.504Z,101667.62
2022-10-24T11:58:54.890Z,101675.79
2022-10-24T12:01:52.551Z,101677.09
2022-10-24T12:05:01.657Z,101682.85
2022-10-24T12:07:48.941Z,101689.62
2022-10-24T12:10:30.916Z,101678.60
2022-10-24T12:13:23.494Z,101665.98
2022-10-24T12:16:15.019Z,101667.26
2022-10-24T12:18:47.217Z,101669.64
2022-10-24T12:21:25.738Z,101664.37
2022-10-24T12:24:00.014Z,101658.13
2022-10-24T12:26:33.084Z,101675.20
2022-10-24T12:29:07.167Z,101661.08
2022-10-24T12:31:37.931Z,101661.08
2022-10-24T12:34:20.428Z,101669.55
2022-10-24T12:37:10.672Z,101666.96
2022-10-24T12:39:56.199Z,101637.92
2022-10-24T12:42:26.052Z,101617.45
2022-10-24T12:45:02.798Z,101608.82
2022-10-24T12:47:36.483Z,101608.30
2022-10-24T12:50:22.746Z,101615.63
2022-10-24T12:53:18.014Z,101644.27
2022-10-24T12:55:45.562Z,101647.14
2022-10-24T12:58:35.437Z,101636.91
2022-10-24T13:01:12.568Z,101647.66
2022-10-24T13:03:54.615Z,101662.35
2022-10-24T13:06:46.162Z,101658.66
2022-10-24T13:09:28.012Z,101651.10
2022-10-24T13:12:23.070Z,101642.96
2022-10-24T13:15:15.003Z,101641.88
2022-10-24T13:17:45.857Z,101618.01
2022-10-24T13:20:22.507Z,101639.00
2022-10-24T13:22:52.087Z,101613.82
2022-10-24T13:25:34.734Z,101618.30
2022-10-24T13:28:23.593Z,101626.74
2022-10-24T13:30:57.439Z,101615.78
2022-10-24T13:33:34.417Z,101614.48
2022-10-24T13:36:11.030Z,101608.79
2022-10-24T13:38:47.496Z,101596.79
2022-10-24T13:41:40.046Z,101602.34
2022-10-24T13:44:22.966Z,101615.26
2022-10-24T13:46:56.956Z,101626.05
2022-10-24T13:50:03.685Z,101616.70
2022-10-24T13:52:31.546Z,101625.89
2022-10-24T13:55:15.386Z,101637.23
2022-10-24T13:57:57.083Z,101639.10
2022-10-24T14:00:28.681Z,101625.73
2022-10-24T14:03:01.030Z,101620.23
2022-10-24T14:05:52.512Z,101626.84
2022-10-24T14:08:34.644Z,101629.23
2022-10-24T14:11:07.742Z,101625.01
2022-10-24T14:13:40.021Z,101617.95
2022-10-24T14:16:08.838Z,101622.12
2022-10-24T14:18:39.165Z,101626.31
2022-10-24T14:21:07.051Z,101629.23
2022-10-24T14:23:42.096Z,101632.37
2022-10-24T14:26:20.002Z,101639.46
2022-10-24T14:28:58.688Z,101642.34
2022-10-24T14:31:32.185Z,101627.55
2022-10-24T14:34:00.011Z,101630.96
2022-10-24T14:36:33.189Z,101640.12
2022-10-24T14:39:02.106Z,101652.96
2022-10-24T14:41:33.144Z,101656.04
2022-10-24T14:44:02.160Z,101662.35
2022-10-24T14:46:37.643Z,101665.72
2022-10-24T14:49:27.590Z,101678.30
2022-10-24T14:51:59.107Z,101678.50
2022-10-24T14:54:33.060Z,101684.78
2022-10-24T14:57:02.097Z,101676.94
2022-10-24T14:59:36.270Z,101677.42
2022-10-24T15:02:15.421Z,101674.74
2022-10-24T15:04:48.603Z,101666.63
2022-10-24T15:07:29.934Z,101674.74
2022-10-24T15:10:04.267Z,101664.51
2022-10-24T15:12:40.518Z,101662.64
2022-10-24T15:15:48.401Z,101652.41
2022-10-24T15:18:23.387Z,101647.93
2022-10-24T15:20:54.649Z,101654.50
2022-10-24T15:23:27.573Z,101646.85
2022-10-24T15:25:59.963Z,101640.80
2022-10-24T15:28:45.509Z,101645.77
2022-10-24T15:31:15.885Z,101667.26
2022-10-24T15:33:43.813Z,101670.36
2022-10-24T15:36:29.534Z,101684.78
2022-10-24T15:39:02.559Z,101678.44
2022-10-24T15:41:30.238Z,101667.38
2022-10-24T15:43:58.625Z,101666.11
2022-10-24T15:46:27.406Z,101681.02
2022-10-24T15:48:55.553Z,101665.52
2022-10-24T15:51:25.927Z,101666.02
2022-10-24T15:53:54.889Z,101668.14
2022-10-24T15:56:22.648Z,101663.33
2022-10-24T15:58:51.995Z,101660.98
2022-10-24T16:01:26.612Z,101657.28
2022-10-24T16:03:55.164Z,101657.51
2022-10-24T16:06:23.350Z,101646.78
2022-10-24T16:08:51.183Z,101654.34
2022-10-24T16:11:19.714Z,101652.24
2022-10-24T16:13:47.830Z,101642.20
2022-10-24T16:16:15.819Z,101654.24
2022-10-24T16:18:43.635Z,101643.71
2022-10-24T16:21:21.243Z,101650.58
2022-10-24T16:26:22.466Z,101646.30
2022-10-24T16:28:50.142Z,101649.20
2022-10-24T16:31:24.732Z,101655.45
2022-10-24T16:33:53.469Z,101657.25
2022-10-24T16:36:24.564Z,101654.86
2022-10-24T16:38:53.390Z,101644.33
2022-10-24T16:41:25.921Z,101653.20
2022-10-24T16:43:58.363Z,101656.59
2022-10-24T16:46:28.254Z,101667.81
2022-10-24T16:48:56.563Z,101663.04
2022-10-24T16:51:28.501Z,101665.91
2022-10-24T16:53:56.105Z,101667.95
2022-10-24T16:56:23.726Z,101661.56
2022-10-24T16:58:51.490Z,101658.91
2022-10-24T17:01:19.474Z,101657.84
2022-10-24T17:03:47.188Z,101654.96
2022-10-24T17:06:15.607Z,101662.77
2022-10-24T17:08:43.386Z,101655.94
2022-10-24T17:11:39.583Z,101647.27
2022-10-24T17:14:00.410Z,101644.63
2022-10-24T17:16:28.422Z,101645.94
2022-10-24T17:19:12.151Z,101633.02
2022-10-24T17:21:42.905Z,101640.08
2022-10-24T17:24:12.667Z,101633.70
2022-10-24T17:26:41.237Z,101629.75
2022-10-24T17:29:12.074Z,101624.22
2022-10-24T17:31:39.807Z,101617.06
2022-10-24T17:34:07.893Z,101628.57
2022-10-24T17:36:39.509Z,101639.49
2022-10-24T17:39:10.667Z,101634.72
2022-10-24T17:41:42.393Z,101645.45
2022-10-24T17:44:17.772Z,101630.76
2022-10-24T17:46:46.569Z,101632.04
2022-10-24T17:49:21.580Z,101636.71
2022-10-24T17:51:49.664Z,101637.73
2022-10-24T17:54:17.849Z,101644.76
2022-10-24T17:56:45.510Z,101647.05
2022-10-24T17:59:13.305Z,101637.34
2022-10-24T18:01:41.189Z,101652.21
2022-10-24T18:04:09.150Z,101647.93
2022-10-24T18:06:40.639Z,101658.33
2022-10-24T18:09:10.652Z,101660.16
2022-10-24T18:11:38.419Z,101661.11
2022-10-24T18:14:06.064Z,101657.64
2022-10-24T18:16:33.722Z,101666.99
2022-10-24T18:19:01.351Z,101670.07
2022-10-24T18:21:29.533Z,101679.32
2022-10-24T18:23:57.993Z,101672.45
2022-10-24T18:26:27.798Z,101659.60
2022-10-24T18:28:56.298Z,101669.80
2022-10-24T18:31:27.028Z,101665.52
2022-10-24T18:33:55.432Z,101654.70
2022-10-24T18:36:26.658Z,101651.52
2022-10-24T18:38:59.638Z,101664.02
2022-10-24T18:41:30.449Z,101664.37
2022-10-24T18:44:00.586Z,101671.12
2022-10-24T18:46:29.578Z,101675.17
2022-10-24T18:48:57.526Z,101672.48
2022-10-24T18:51:46.731Z,101678.90
2022-10-24T18:54:20.484Z,101700.19
2022-10-24T18:56:48.974Z,101691.91
2022-10-24T18:59:20.379Z,101697.05
2022-10-24T19:02:17.200Z,101702.96
2022-10-24T19:04:47.467Z,101702.05
2022-10-24T19:07:15.190Z,101713.55
2022-10-24T19:09:43.587Z,101724.84
2022-10-24T19:12:11.454Z,101716.73
2022-10-24T19:14:39.310Z,101707.48
2022-10-24T19:17:07.078Z,101707.97
2022-10-24T19:19:38.063Z,101705.28
2022-10-24T19:22:05.743Z,101709.80
2022-10-24T19:24:33.892Z,101717.77
2022-10-24T19:27:01.576Z,101725.46
2022-10-24T19:29:29.264Z,101716.24
2022-10-24T19:31:56.886Z,101720.10
2022-10-24T19:34:24.595Z,101715.29
2022-10-24T19:36:52.323Z,101719.45
2022-10-24T19:39:20.147Z,101723.59
2022-10-24T19:41:47.881Z,101727.91
2022-10-24T19:44:16.083Z,101721.05
2022-10-24T19:46:43.741Z,101717.58
2022-10-24T19:49:11.470Z,101723.47
2022-10-24T19:51:39.127Z,101722.35
2022-10-24T19:54:06.947Z,101715.52
2022-10-24T19:56:34.613Z,101719.67
2022-10-24T19:59:02.302Z,101720.95
2022-10-24T20:01:31.256Z,101722.35
2022-10-24T20:04:01.514Z,101717.13
2022-10-24T20:06:29.198Z,101719.34
2022-10-24T20:08:56.840Z,101712.97
2022-10-24T20:11:24.709Z,101722.06
2022-10-24T20:13:52.491Z,101716.01
2022-10-24T20:16:20.781Z,101723.20
2022-10-24T20:18:49.111Z,101735.96
2022-10-24T20:21:18.991Z,101734.52
2022-10-24T20:23:50.187Z,101737.53
2022-10-24T20:26:21.426Z,101735.50
2022-10-24T20:28:51.961Z,101747.44
2022-10-24T20:31:29.155Z,101742.50
2022-10-24T20:34:06.690Z,101742.01
2022-10-24T20:36:35.723Z,101741.22
2022-10-24T20:39:03.674Z,101748.25
2022-10-24T20:41:31.410Z,101746.65
2022-10-24T20:43:59.111Z,101752.87
2022-10-24T20:46:26.793Z,101759.08
2022-10-24T20:48:57.195Z,101759.08
2022-10-24T20:51:25.279Z,101764.02
2022-10-24T20:53:53.106Z,101766.56
2022-10-24T20:56:23.573Z,101776.27
2022-10-24T20:58:52.760Z,101775.49
2022-10-24T21:01:25.701Z,101794.91
2022-10-24T21:03:54.152Z,101789.52
2022-10-24T21:06:30.703Z,101794.79
2022-10-24T21:09:01.041Z,101791.45
2022-10-24T21:11:30.960Z,101800.05
2022-10-24T21:14:19.037Z,101796.35
2022-10-24T21:16:46.774Z,101800.05
2022-10-24T21:19:14.747Z,101806.55
2022-10-24T21:21:42.561Z,101805.80
2022-10-24T21:24:15.977Z,101819.34
2022-10-24T21:26:43.712Z,101824.61
2022-10-24T21:31:59.209Z,101824.61
2022-10-24T21:34:30.085Z,101831.77
2022-10-24T21:37:00.944Z,101838.15
2022-10-24T21:39:28.674Z,101835.92
2022-10-24T21:41:56.297Z,101832.09
2022-10-24T21:44:26.727Z,101835.27
2022-10-24T21:46:55.514Z,101836.87
2022-10-24T21:49:24.393Z,101834.81
2022-10-24T21:51:52.438Z,101828.11
2022-10-24T21:54:22.603Z,101842.76
2022-10-24T21:56:50.468Z,101846.13
2022-10-24T21:59:20.393Z,101849.98
2022-10-24T22:01:50.151Z,101849.16
2022-10-24T22:04:19.325Z,101849.16
2022-10-24T22:06:47.308Z,101847.89
2022-10-24T22:09:27.250Z,101852.17
2022-10-24T22:11:58.697Z,101859.04
2022-10-24T22:14:26.642Z,101860.64
2022-10-24T22:16:54.281Z,101858.09
2022-10-24T22:19:21.930Z,101860.52
2022-10-24T22:21:51.733Z,101851.42
2022-10-24T22:24:24.445Z,101858.75
2022-10-24T22:26:53.237Z,101851.42
2022-10-24T22:29:23.823Z,101854.27
2022-10-24T22:31:53.434Z,101847.76
2022-10-24T22:34:23.881Z,101848.05
2022-10-24T22:37:28.735Z,101842.33
2022-10-24T22:39:56.663Z,101847.27
2022-10-24T22:42:24.462Z,101852.99
2022-10-24T22:44:52.520Z,101858.42
2022-10-24T22:47:53.279Z,101860.84
2022-10-24T22:50:36.125Z,101864.30
2022-10-24T22:53:04.217Z,101856.49
2022-10-24T22:55:38.667Z,101852.80
2022-10-24T22:58:06.468Z,101865.09
2022-10-24T23:00:34.371Z,101861.92
2022-10-24T23:03:18.414Z,101878.50
2022-10-24T23:08:37.258Z,101861.76
2022-10-24T23:11:05.550Z,101856.82
2022-10-24T23:13:33.768Z,101847.11
2022-10-24T23:16:19.735Z,101865.55
2022-10-24T23:18:47.665Z,101887.42
2022-10-24T23:21:46.541Z,101890.47
2022-10-24T23:24:17.250Z,101885.85
2022-10-24T23:27:11.367Z,101894.75
2022-10-24T23:29:46.544Z,101903.38
2022-10-24T23:32:29.425Z,101929.22
2022-10-24T23:34:58.833Z,101940.82
2022-10-24T23:37:37.566Z,101940.37
2022-10-24T23:40:18.479Z,101943.70
2022-10-24T23:42:46.824Z,101942.10
2022-10-24T23:45:20.001Z,101916.89
2022-10-24T23:47:59.473Z,101912.57
2022-10-24T23:50:52.912Z,101899.33
2022-10-24T23:53:39.114Z,101909.53
2022-10-24T23:56:07.241Z,101890.40
2022-10-24T23:58:34.843Z,101905.21
